OAW24K ELLX-LSZH
Flight info
| Callsign | OAW24K |
|---|---|
| Flight time | N/A |
| Altitude | 23999 |
| Route | ELLX SID GTQ DCT LUPEN Y126 DENEL Y711 MOPAN DCT TITIX N850 TRA STAR LSZH |
| Aircraft | E295/M-VGDW/C |
Departure
| Time | 2026-05-05 18:38 |
|---|---|
| Airport | Luxembourg-Findel International Airport (ELLX) |
Arrival
| Time | N/A |
|---|---|
| Airport | Zürich Airport (LSZH) |
| Time | Latitude | Longitude | Altitude | Speed | Heading |
|---|---|---|---|---|---|
| 2026-05-05 18:12 | 49.63023 | 6.21155 | 1247 ft | 0 kts | 64° |
| 2026-05-05 18:19 | 49.63182 | 6.21590 | 1233 ft | 0 kts | 64° |
| 2026-05-05 18:20 | 49.63202 | 6.21656 | 1232 ft | 0 kts | 62° |
| 2026-05-05 18:30 | 49.63204 | 6.21662 | 1232 ft | 2 kts | 62° |
| 2026-05-05 18:30 | 49.63207 | 6.21691 | 1232 ft | 7 kts | 91° |
| 2026-05-05 18:30 | 49.63171 | 6.21750 | 1230 ft | 11 kts | 142° |
| 2026-05-05 18:31 | 49.63111 | 6.21737 | 1230 ft | 7 kts | 227° |
| 2026-05-05 18:31 | 49.63081 | 6.21658 | 1229 ft | 7 kts | 244° |
| 2026-05-05 18:31 | 49.63059 | 6.21582 | 1229 ft | 12 kts | 245° |
| 2026-05-05 18:31 | 49.63020 | 6.21455 | 1230 ft | 12 kts | 245° |
| 2026-05-05 18:32 | 49.62991 | 6.21361 | 1233 ft | 8 kts | 244° |
| 2026-05-05 18:32 | 49.62961 | 6.21268 | 1246 ft | 16 kts | 243° |
| 2026-05-05 18:32 | 49.62913 | 6.21115 | 1249 ft | 11 kts | 244° |
| 2026-05-05 18:32 | 49.62875 | 6.20996 | 1246 ft | 17 kts | 244° |
| 2026-05-05 18:33 | 49.62821 | 6.20823 | 1241 ft | 14 kts | 243° |
| 2026-05-05 18:33 | 49.62775 | 6.20721 | 1248 ft | 13 kts | 225° |
| 2026-05-05 18:33 | 49.62688 | 6.20612 | 1242 ft | 15 kts | 216° |
| 2026-05-05 18:33 | 49.62619 | 6.20508 | 1253 ft | 16 kts | 227° |
| 2026-05-05 18:34 | 49.62520 | 6.20326 | 1235 ft | 28 kts | 233° |
| 2026-05-05 18:34 | 49.62420 | 6.20077 | 1228 ft | 26 kts | 239° |
| 2026-05-05 18:34 | 49.62339 | 6.19860 | 1221 ft | 21 kts | 239° |
| 2026-05-05 18:34 | 49.62270 | 6.19674 | 1210 ft | 19 kts | 240° |
| 2026-05-05 18:35 | 49.62208 | 6.19511 | 1201 ft | 17 kts | 241° |
| 2026-05-05 18:35 | 49.62143 | 6.19331 | 1190 ft | 19 kts | 240° |
| 2026-05-05 18:35 | 49.62087 | 6.19177 | 1184 ft | 15 kts | 240° |
| 2026-05-05 18:35 | 49.62039 | 6.19051 | 1179 ft | 11 kts | 239° |
| 2026-05-05 18:36 | 49.62008 | 6.18968 | 1174 ft | 11 kts | 240° |
| 2026-05-05 18:36 | 49.61961 | 6.18844 | 1171 ft | 17 kts | 237° |
| 2026-05-05 18:36 | 49.61886 | 6.18741 | 1172 ft | 12 kts | 215° |
| 2026-05-05 18:36 | 49.61830 | 6.18710 | 1168 ft | 11 kts | 172° |
| 2026-05-05 18:37 | 49.61783 | 6.18749 | 1169 ft | 3 kts | 146° |
| 2026-05-05 18:37 | 49.61766 | 6.18782 | 1168 ft | 1 kts | 101° |
| 2026-05-05 18:37 | 49.61777 | 6.18825 | 1174 ft | 12 kts | 51° |
| 2026-05-05 18:37 | 49.61800 | 6.18873 | 1173 ft | 0 kts | 59° |
| 2026-05-05 18:38 | 49.61822 | 6.18934 | 1173 ft | 36 kts | 60° |
| 2026-05-05 18:38 | 49.62131 | 6.19767 | 1211 ft | 141 kts | 60° |
| 2026-05-05 18:38 | 49.62788 | 6.21516 | 1431 ft | 230 kts | 60° |
| 2026-05-05 18:38 | 49.63636 | 6.23744 | 2420 ft | 241 kts | 60° |
| 2026-05-05 18:39 | 49.64189 | 6.25211 | 2813 ft | 223 kts | 61° |
| 2026-05-05 18:39 | 49.65068 | 6.27575 | 3168 ft | 267 kts | 62° |
| 2026-05-05 18:39 | 49.65588 | 6.30281 | 3652 ft | 267 kts | 93° |
| 2026-05-05 18:39 | 49.65021 | 6.32946 | 4145 ft | 264 kts | 129° |
| 2026-05-05 18:40 | 49.63571 | 6.34596 | 4633 ft | 263 kts | 160° |
| 2026-05-05 18:40 | 49.61854 | 6.35489 | 5088 ft | 263 kts | 164° |
| 2026-05-05 18:40 | 49.60072 | 6.36304 | 5576 ft | 265 kts | 165° |
| 2026-05-05 18:40 | 49.58318 | 6.37107 | 6060 ft | 267 kts | 165° |
| 2026-05-05 18:41 | 49.56537 | 6.37961 | 6526 ft | 269 kts | 164° |
| 2026-05-05 18:41 | 49.54754 | 6.38861 | 7002 ft | 271 kts | 163° |
| 2026-05-05 18:41 | 49.52963 | 6.39810 | 7464 ft | 273 kts | 162° |
| 2026-05-05 18:41 | 49.51176 | 6.40791 | 8022 ft | 274 kts | 162° |
| 2026-05-05 18:42 | 49.49369 | 6.41811 | 8588 ft | 278 kts | 162° |
| 2026-05-05 18:42 | 49.47598 | 6.43017 | 9170 ft | 280 kts | 150° |
| 2026-05-05 18:42 | 49.45870 | 6.44415 | 9865 ft | 282 kts | 158° |
| 2026-05-05 18:42 | 49.44038 | 6.45481 | 10923 ft | 282 kts | 164° |
| 2026-05-05 18:43 | 49.42170 | 6.46439 | 12413 ft | 284 kts | 164° |
| 2026-05-05 18:43 | 49.40312 | 6.47405 | 13973 ft | 278 kts | 163° |
| 2026-05-05 18:43 | 49.38469 | 6.48399 | 15212 ft | 288 kts | 161° |
| 2026-05-05 18:43 | 49.36568 | 6.49563 | 16305 ft | 300 kts | 160° |
| 2026-05-05 18:44 | 49.34599 | 6.50822 | 17384 ft | 313 kts | 159° |
| 2026-05-05 18:44 | 49.32555 | 6.52128 | 18443 ft | 323 kts | 159° |
| 2026-05-05 18:44 | 49.30442 | 6.53451 | 19482 ft | 331 kts | 159° |
| 2026-05-05 18:44 | 49.28321 | 6.54750 | 20599 ft | 335 kts | 159° |
| 2026-05-05 18:45 | 49.26134 | 6.56065 | 21671 ft | 343 kts | 159° |
| 2026-05-05 18:45 | 49.23841 | 6.57421 | 22256 ft | 363 kts | 159° |
| 2026-05-05 18:45 | 49.21416 | 6.58842 | 22856 ft | 383 kts | 159° |
| 2026-05-05 18:45 | 49.18866 | 6.60321 | 23448 ft | 401 kts | 159° |
| 2026-05-05 18:46 | 49.16193 | 6.61864 | 23833 ft | 421 kts | 159° |
| 2026-05-05 18:46 | 49.13389 | 6.63473 | 24266 ft | 440 kts | 159° |
| 2026-05-05 18:46 | 49.10458 | 6.65144 | 24562 ft | 460 kts | 160° |
| 2026-05-05 18:46 | 49.07446 | 6.66849 | 24692 ft | 461 kts | 160° |
| 2026-05-05 18:47 | 49.04425 | 6.68544 | 24758 ft | 463 kts | 160° |
| 2026-05-05 18:47 | 49.01389 | 6.70224 | 24795 ft | 464 kts | 160° |
| 2026-05-05 18:47 | 48.98319 | 6.71730 | 24812 ft | 463 kts | 162° |
| 2026-05-05 18:47 | 48.95485 | 6.73995 | 24826 ft | 464 kts | 142° |
| 2026-05-05 18:48 | 48.93315 | 6.77643 | 24825 ft | 467 kts | 127° |
| 2026-05-05 18:48 | 48.91494 | 6.81743 | 24825 ft | 468 kts | 124° |
| 2026-05-05 18:48 | 48.89738 | 6.85898 | 24827 ft | 467 kts | 124° |
| 2026-05-05 18:48 | 48.87969 | 6.90051 | 24829 ft | 467 kts | 124° |
| 2026-05-05 18:49 | 48.86187 | 6.94105 | 24828 ft | 467 kts | 126° |
| 2026-05-05 18:49 | 48.84335 | 6.98165 | 24828 ft | 468 kts | 127° |
| 2026-05-05 18:49 | 48.82417 | 7.02227 | 24831 ft | 467 kts | 127° |
| 2026-05-05 18:49 | 48.80508 | 7.06146 | 24829 ft | 467 kts | 128° |
| 2026-05-05 18:50 | 48.78545 | 7.10071 | 24826 ft | 467 kts | 129° |
| 2026-05-05 18:50 | 48.76555 | 7.13963 | 24828 ft | 467 kts | 129° |
| 2026-05-05 18:50 | 48.74541 | 7.17831 | 24824 ft | 467 kts | 130° |
| 2026-05-05 18:50 | 48.72510 | 7.21671 | 24831 ft | 467 kts | 130° |
| 2026-05-05 18:51 | 48.70462 | 7.25494 | 24831 ft | 467 kts | 131° |
| 2026-05-05 18:51 | 48.68403 | 7.29297 | 24830 ft | 466 kts | 131° |
| 2026-05-05 18:51 | 48.66340 | 7.33072 | 24833 ft | 466 kts | 131° |
| 2026-05-05 18:51 | 48.64264 | 7.36840 | 24831 ft | 466 kts | 131° |
| 2026-05-05 18:52 | 48.62186 | 7.40585 | 24678 ft | 465 kts | 131° |
| 2026-05-05 18:52 | 48.60098 | 7.44327 | 24276 ft | 464 kts | 132° |
| 2026-05-05 18:52 | 48.58022 | 7.48029 | 23874 ft | 460 kts | 132° |
| 2026-05-05 18:52 | 48.55966 | 7.51685 | 23488 ft | 446 kts | 132° |
| 2026-05-05 18:53 | 48.54044 | 7.55093 | 23043 ft | 420 kts | 132° |
| 2026-05-05 18:53 | 48.52135 | 7.58457 | 22585 ft | 421 kts | 133° |
| 2026-05-05 18:53 | 48.50210 | 7.61831 | 22130 ft | 417 kts | 133° |
| 2026-05-05 18:53 | 48.48344 | 7.65085 | 21681 ft | 415 kts | 133° |
| 2026-05-05 18:54 | 48.46456 | 7.68361 | 21246 ft | 413 kts | 133° |
| 2026-05-05 18:54 | 48.44577 | 7.71609 | 20798 ft | 411 kts | 133° |
| 2026-05-05 18:54 | 48.42799 | 7.74975 | 20340 ft | 410 kts | 129° |
| 2026-05-05 18:54 | 48.41108 | 7.78478 | 20063 ft | 407 kts | 127° |
| 2026-05-05 18:55 | 48.39509 | 7.81936 | 19944 ft | 407 kts | 127° |
| 2026-05-05 18:55 | 48.37918 | 7.85465 | 19887 ft | 407 kts | 126° |
| 2026-05-05 18:55 | 48.36352 | 7.89007 | 19856 ft | 407 kts | 126° |
| 2026-05-05 18:55 | 48.34785 | 7.92584 | 19469 ft | 410 kts | 126° |
| 2026-05-05 18:56 | 48.33223 | 7.96155 | 19031 ft | 407 kts | 126° |
| 2026-05-05 18:56 | 48.31671 | 7.99701 | 18598 ft | 406 kts | 126° |
| 2026-05-05 18:56 | 48.30120 | 8.03230 | 18171 ft | 404 kts | 126° |
| 2026-05-05 18:56 | 48.28568 | 8.06742 | 17696 ft | 403 kts | 126° |
| 2026-05-05 18:57 | 48.27017 | 8.10230 | 17213 ft | 400 kts | 127° |
| 2026-05-05 18:57 | 48.25147 | 8.13226 | 16747 ft | 392 kts | 147° |
| 2026-05-05 18:57 | 48.22792 | 8.15211 | 16276 ft | 387 kts | 156° |
| 2026-05-05 18:57 | 48.20346 | 8.16871 | 15824 ft | 383 kts | 159° |
| 2026-05-05 18:58 | 48.17922 | 8.18367 | 15383 ft | 381 kts | 161° |
| 2026-05-05 18:58 | 48.15463 | 8.19800 | 15094 ft | 377 kts | 162° |
| 2026-05-05 18:58 | 48.13003 | 8.21180 | 14970 ft | 376 kts | 162° |
| 2026-05-05 18:58 | 48.10550 | 8.22520 | 14924 ft | 376 kts | 163° |
| 2026-05-05 18:59 | 48.08079 | 8.23841 | 14890 ft | 377 kts | 163° |
| 2026-05-05 18:59 | 48.05598 | 8.25147 | 14631 ft | 379 kts | 163° |
| 2026-05-05 18:59 | 48.03121 | 8.26438 | 14226 ft | 375 kts | 164° |
| 2026-05-05 18:59 | 48.00668 | 8.27709 | 14044 ft | 372 kts | 164° |
| 2026-05-05 19:00 | 47.98218 | 8.28966 | 13961 ft | 372 kts | 164° |
| 2026-05-05 19:00 | 47.95767 | 8.30217 | 13922 ft | 372 kts | 164° |
| 2026-05-05 19:00 | 47.93316 | 8.31462 | 13896 ft | 372 kts | 165° |
| 2026-05-05 19:00 | 47.90936 | 8.32995 | 13885 ft | 378 kts | 150° |
| 2026-05-05 19:01 | 47.89079 | 8.35804 | 13881 ft | 387 kts | 128° |
| 2026-05-05 19:01 | 47.87632 | 8.39195 | 13879 ft | 388 kts | 124° |
| 2026-05-05 19:01 | 47.86257 | 8.42658 | 13878 ft | 389 kts | 123° |
| 2026-05-05 19:01 | 47.84881 | 8.46127 | 13878 ft | 389 kts | 124° |
| 2026-05-05 19:02 | 47.83315 | 8.49359 | 13885 ft | 383 kts | 139° |
| 2026-05-05 19:02 | 47.81200 | 8.51704 | 13880 ft | 379 kts | 147° |
| 2026-05-05 19:02 | 47.79407 | 8.54629 | 13880 ft | 388 kts | 128° |
| 2026-05-05 19:02 | 47.77956 | 8.58028 | 13878 ft | 389 kts | 124° |
| 2026-05-05 19:03 | 47.76592 | 8.61455 | 13879 ft | 390 kts | 123° |
| 2026-05-05 19:03 | 47.75219 | 8.64930 | 13881 ft | 390 kts | 124° |
| 2026-05-05 19:03 | 47.73823 | 8.68378 | 13883 ft | 389 kts | 124° |
| 2026-05-05 19:03 | 47.72392 | 8.71796 | 13892 ft | 389 kts | 126° |
| 2026-05-05 19:04 | 47.70930 | 8.75176 | 13887 ft | 388 kts | 126° |
| 2026-05-05 19:04 | 47.69444 | 8.78519 | 13893 ft | 388 kts | 127° |
| 2026-05-05 19:04 | 47.67931 | 8.81848 | 13880 ft | 388 kts | 127° |
| 2026-05-05 19:04 | 47.66401 | 8.85150 | 13890 ft | 388 kts | 128° |
| 2026-05-05 19:05 | 47.64859 | 8.88428 | 13882 ft | 388 kts | 128° |
| 2026-05-05 19:05 | 47.63300 | 8.91701 | 13872 ft | 389 kts | 128° |
| 2026-05-05 19:05 | 47.61727 | 8.94971 | 13893 ft | 389 kts | 128° |
| 2026-05-05 19:05 | 47.60152 | 8.98219 | 13881 ft | 388 kts | 129° |
| 2026-05-05 19:06 | 47.58565 | 9.01461 | 13871 ft | 388 kts | 128° |
| 2026-05-05 19:06 | 47.57332 | 9.04962 | 13880 ft | 394 kts | 108° |
| 2026-05-05 19:06 | 47.56974 | 9.09010 | 13901 ft | 396 kts | 96° |
| 2026-05-05 19:06 | 47.56548 | 9.13023 | 13931 ft | 395 kts | 105° |
| 2026-05-05 19:07 | 47.55684 | 9.16874 | 13963 ft | 392 kts | 114° |
| 2026-05-05 19:07 | 47.54635 | 9.20595 | 14030 ft | 392 kts | 115° |
| 2026-05-05 19:07 | 47.53506 | 9.24275 | 14091 ft | 393 kts | 117° |
| 2026-05-05 19:07 | 47.52324 | 9.27918 | 14137 ft | 392 kts | 117° |
| 2026-05-05 19:08 | 47.51136 | 9.31553 | 14177 ft | 392 kts | 118° |
| 2026-05-05 19:08 | 47.50210 | 9.35356 | 14083 ft | 396 kts | 103° |
| 2026-05-05 19:08 | 47.49877 | 9.39351 | 13961 ft | 384 kts | 88° |
| 2026-05-05 19:08 | 47.50569 | 9.43009 | 13928 ft | 368 kts | 60° |
| 2026-05-05 19:09 | 47.52268 | 9.45796 | 13905 ft | 366 kts | 34° |
| 2026-05-05 19:09 | 47.54375 | 9.47880 | 13893 ft | 364 kts | 29° |
| 2026-05-05 19:09 | 47.56676 | 9.49346 | 13898 ft | 360 kts | 12° |
| 2026-05-05 19:09 | 47.59142 | 9.50001 | 13891 ft | 357 kts | 3° |
| 2026-05-05 19:10 | 47.61568 | 9.49606 | 13886 ft | 351 kts | 341° |
| 2026-05-05 19:10 | 47.63785 | 9.48172 | 13882 ft | 345 kts | 324° |
| 2026-05-05 19:10 | 47.65725 | 9.46093 | 13883 ft | 344 kts | 319° |
| 2026-05-05 19:10 | 47.67375 | 9.43651 | 13896 ft | 339 kts | 299° |
| 2026-05-05 19:11 | 47.68167 | 9.40398 | 13889 ft | 333 kts | 280° |
| 2026-05-05 19:11 | 47.68360 | 9.37157 | 13885 ft | 302 kts | 263° |
| 2026-05-05 19:11 | 47.68264 | 9.34167 | 13891 ft | 283 kts | 274° |
| 2026-05-05 19:11 | 47.68544 | 9.31348 | 13892 ft | 267 kts | 278° |
| 2026-05-05 19:12 | 47.68865 | 9.28650 | 13888 ft | 266 kts | 277° |
| 2026-05-05 19:12 | 47.69150 | 9.25923 | 13714 ft | 269 kts | 276° |
| 2026-05-05 19:12 | 47.69417 | 9.23205 | 13322 ft | 266 kts | 276° |
| 2026-05-05 19:12 | 47.69653 | 9.20498 | 12857 ft | 262 kts | 273° |
| 2026-05-05 19:13 | 47.69775 | 9.17810 | 12383 ft | 259 kts | 270° |
| 2026-05-05 19:13 | 47.69603 | 9.15208 | 11942 ft | 252 kts | 244° |
| 2026-05-05 19:13 | 47.68469 | 9.13311 | 11544 ft | 251 kts | 208° |
| 2026-05-05 19:13 | 47.66750 | 9.12922 | 11215 ft | 258 kts | 170° |
| 2026-05-05 19:14 | 47.65192 | 9.14253 | 11045 ft | 269 kts | 133° |
| 2026-05-05 19:14 | 47.64430 | 9.16802 | 10965 ft | 279 kts | 99° |
| 2026-05-05 19:14 | 47.64362 | 9.19700 | 10907 ft | 281 kts | 91° |
| 2026-05-05 19:14 | 47.64432 | 9.22585 | 10895 ft | 281 kts | 89° |
| 2026-05-05 19:15 | 47.64542 | 9.25483 | 10888 ft | 282 kts | 88° |
| 2026-05-05 19:15 | 47.64535 | 9.28377 | 10894 ft | 279 kts | 104° |
| 2026-05-05 19:15 | 47.63729 | 9.30908 | 10941 ft | 271 kts | 137° |
| 2026-05-05 19:15 | 47.62186 | 9.32337 | 10960 ft | 260 kts | 171° |
| 2026-05-05 19:16 | 47.60465 | 9.32226 | 10966 ft | 251 kts | 205° |
| 2026-05-05 19:16 | 47.59137 | 9.30639 | 10966 ft | 248 kts | 240° |
| 2026-05-05 19:16 | 47.58706 | 9.28189 | 11039 ft | 250 kts | 266° |
| 2026-05-05 19:16 | 47.58744 | 9.25592 | 10978 ft | 255 kts | 271° |
| 2026-05-05 19:17 | 47.58868 | 9.22960 | 10555 ft | 255 kts | 272° |
| 2026-05-05 19:17 | 47.59021 | 9.20347 | 10121 ft | 254 kts | 272° |
| 2026-05-05 19:17 | 47.59192 | 9.17751 | 9670 ft | 252 kts | 272° |
| 2026-05-05 19:17 | 47.59369 | 9.15195 | 9296 ft | 246 kts | 273° |
| 2026-05-05 19:18 | 47.59548 | 9.12705 | 9144 ft | 241 kts | 273° |
| 2026-05-05 19:18 | 47.59527 | 9.10260 | 9079 ft | 237 kts | 249° |
| 2026-05-05 19:18 | 47.58640 | 9.08221 | 9061 ft | 238 kts | 228° |
| 2026-05-05 19:18 | 47.57476 | 9.06470 | 9003 ft | 238 kts | 220° |
| 2026-05-05 19:19 | 47.55964 | 9.05516 | 8985 ft | 244 kts | 188° |
| 2026-05-05 19:19 | 47.54254 | 9.05474 | 8931 ft | 246 kts | 181° |
| 2026-05-05 19:19 | 47.52541 | 9.05609 | 8865 ft | 246 kts | 179° |
| 2026-05-05 19:19 | 47.50860 | 9.05402 | 8822 ft | 242 kts | 206° |
| 2026-05-05 19:20 | 47.49503 | 9.04015 | 8752 ft | 241 kts | 226° |
| 2026-05-05 19:20 | 47.48400 | 9.02113 | 8685 ft | 241 kts | 232° |
| 2026-05-05 19:20 | 47.47400 | 9.00176 | 8617 ft | 240 kts | 233° |
| 2026-05-05 19:20 | 47.46410 | 8.98184 | 8555 ft | 240 kts | 233° |
| 2026-05-05 19:21 | 47.45423 | 8.96186 | 8493 ft | 241 kts | 233° |
| 2026-05-05 19:21 | 47.44437 | 8.94187 | 8423 ft | 237 kts | 234° |
| 2026-05-05 19:21 | 47.43522 | 8.92283 | 8361 ft | 219 kts | 240° |
| 2026-05-05 19:21 | 47.42955 | 8.90302 | 8335 ft | 200 kts | 251° |
| 2026-05-05 19:22 | 47.42611 | 8.88353 | 8265 ft | 195 kts | 257° |